Time;durP1;ratioP1;P1;durP2;ratioP2;P2;SDS_P1;SDS_P2;PMS_P1;PMS_P2;Temp;Humidity;BMP_temperature;BMP_pressure;BME280_temperature;BME280_humidity;BME280_pressure;Samples;Min_cycle;Max_cycle;Signal;HPM_P1;HPM_P2
2023/01/04 00:02:35;;;;;;;16.03;12.43;;;11.30;99.90;;;;;;1931898;73;21163;-90
2023/01/04 00:06:00;;;;;;;16.12;12.43;;;11.30;99.90;;;;;;1944890;73;21093;-92
2023/01/04 00:09:34;;;;;;;;;;;;;;;;;;;;;
2023/01/04 00:12:51;;;;;;;18.00;12.43;;;11.30;99.90;;;;;;1911292;73;21085;-92
2023/01/04 00:16:11;;;;;;;17.35;13.45;;;11.30;99.90;;;;;;1935734;73;21121;-89
2023/01/04 00:22:06;;;;;;;15.43;12.50;;;11.20;99.90;;;;;;1946012;72;22231;-92
2023/01/04 00:24:58;;;;;;;17.05;12.43;;;11.20;99.90;;;;;;1914319;75;21088;-91
2023/01/04 00:28:02;;;;;;;19.37;11.55;;;11.20;99.90;;;;;;1909558;75;21047;-91
2023/01/04 00:30:53;;;;;;;16.15;12.95;;;11.10;99.90;;;;;;1888305;73;21170;-91
2023/01/04 00:34:11;;;;;;;;;;;;;;;;;;;;;
2023/01/04 00:40:25;;;;;;;16.80;12.10;;;11.10;99.90;;;;;;2017818;69;22190;-92
2023/01/04 00:43:54;;;;;;;16.15;12.65;;;11.20;99.90;;;;;;1966659;72;21012;-89
2023/01/04 00:49:52;;;;;;;16.48;12.82;;;11.20;99.90;;;;;;1953979;72;22158;-93
2023/01/04 00:59:36;;;;;;;15.32;12.20;;;11.20;99.90;;;;;;1889562;75;21092;-92
2023/01/04 01:02:30;;;;;;;17.67;12.85;;;11.20;99.90;;;;;;1887380;75;21091;-91
2023/01/04 01:05:27;;;;;;;16.27;12.70;;;11.10;99.90;;;;;;1887194;75;21159;-92
2023/01/04 01:11:15;;;;;;;15.98;12.18;;;11.00;99.90;;;;;;1930994;72;22148;-92
2023/01/04 01:14:09;;;;;;;18.77;12.50;;;11.00;99.90;;;;;;1881389;75;21556;-91
2023/01/04 01:23:11;;;;;;;14.95;11.88;;;10.90;99.90;;;;;;1918176;74;21039;-91
2023/01/04 01:26:22;;;;;;;13.50;11.48;;;10.80;99.90;;;;;;1926459;74;21200;-91
2023/01/04 01:29:26;;;;;;;15.68;12.18;;;10.80;99.90;;;;;;1906869;74;21109;-91
2023/01/04 01:32:23;;;;;;;14.47;11.53;;;10.80;99.90;;;;;;1919642;74;21135;-91
2023/01/04 01:35:26;;;;;;;14.43;11.38;;;10.80;99.90;;;;;;1904526;75;21331;-90
2023/01/04 01:42:21;;;;;;;15.43;12.00;;;10.90;99.90;;;;;;1988698;71;22101;-92
2023/01/04 01:50:30;;;;;;;14.95;12.15;;;10.90;99.90;;;;;;1981035;71;22151;-92
2023/01/04 02:07:29;;;;;;;17.70;12.78;;;10.90;99.90;;;;;;1955707;72;21066;-91
2023/01/04 02:11:26;;;;;;;15.83;12.68;;;10.90;99.90;;;;;;1978766;72;21140;-92
2023/01/04 02:14:29;;;;;;;16.25;12.80;;;10.90;99.90;;;;;;1959429;72;21581;-92
2023/01/04 02:20:49;;;;;;;15.93;13.35;;;11.00;99.90;;;;;;1998599;71;22162;-90
2023/01/04 02:24:17;;;;;;;15.88;12.65;;;11.00;99.90;;;;;;1952822;73;21343;-92
2023/01/04 02:27:39;;;;;;;14.78;11.53;;;11.00;99.90;;;;;;2046461;69;21107;-90
2023/01/04 02:33:23;;;;;;;16.75;12.98;;;11.10;99.90;;;;;;1953321;72;20268;-92
2023/01/04 02:36:19;;;;;;;15.80;11.88;;;11.10;99.90;;;;;;1914079;74;21091;-93
2023/01/04 02:39:17;;;;;;;14.28;11.75;;;11.10;99.90;;;;;;1883814;76;21139;-93
2023/01/04 02:46:29;;;;;;;14.53;12.18;;;11.10;99.90;;;;;;1979202;71;22892;-93
2023/01/04 02:52:30;;;;;;;14.60;12.05;;;11.10;99.90;;;;;;2011575;70;21164;-93
2023/01/04 02:55:23;;;;;;;15.88;13.32;;;11.10;99.90;;;;;;2021517;70;21163;-91
2023/01/04 02:58:22;;;;;;;17.05;14.00;;;11.00;99.90;;;;;;2031741;70;21069;-92
2023/01/04 03:08:05;;;;;;;17.92;14.25;;;11.00;99.90;;;;;;2018820;70;21041;-91
2023/01/04 03:11:00;;;;;;;18.77;14.05;;;10.90;99.90;;;;;;2017189;70;21077;-92
2023/01/04 03:17:38;;;;;;;15.20;13.03;;;10.90;99.90;;;;;;2008276;71;22250;-93
2023/01/04 03:20:32;;;;;;;15.60;13.28;;;10.90;99.90;;;;;;2006630;71;21054;-91
2023/01/04 03:49:32;;;;;;;14.58;11.88;;;10.80;99.90;;;;;;1950533;72;22198;-92
2023/01/04 03:52:25;;;;;;;15.80;11.28;;;10.80;99.90;;;;;;1896854;75;21165;-91
2023/01/04 03:55:18;;;;;;;14.10;11.78;;;10.70;99.90;;;;;;1876299;76;21221;-91
2023/01/04 03:58:12;;;;;;;14.90;11.68;;;10.70;99.90;;;;;;1903356;75;21129;-91
2023/01/04 04:01:05;;;;;;;14.30;11.90;;;10.70;99.90;;;;;;1885164;75;21099;-91
2023/01/04 04:09:59;;;;;;;13.78;11.38;;;10.70;99.90;;;;;;1994489;71;22148;-90
2023/01/04 04:12:57;;;;;;;13.10;11.28;;;10.70;99.90;;;;;;1932063;73;21063;-90
2023/01/04 04:15:46;;;;;;;15.23;12.00;;;10.70;99.90;;;;;;2013726;70;21021;-90
2023/01/04 04:18:37;;;;;;;15.78;11.48;;;10.70;99.90;;;;;;2010941;70;21549;-90
2023/01/04 04:21:30;;;;;;;14.70;10.95;;;10.60;99.90;;;;;;2025190;70;21114;-90
2023/01/04 04:24:24;;;;;;;12.03;10.78;;;10.60;99.90;;;;;;1997069;70;21096;-90
2023/01/04 04:43:14;;;;;;;11.70;10.30;;;10.50;99.90;;;;;;1946780;72;22656;-90
2023/01/04 04:46:06;;;;;;;12.78;10.53;;;10.40;99.90;;;;;;1935363;73;21038;-92
2023/01/04 04:49:00;;;;;;;12.98;10.95;;;10.40;99.90;;;;;;1953379;73;21159;-92
2023/01/04 04:55:10;;;;;;;12.65;10.48;;;10.40;99.90;;;;;;2098811;68;22084;-92
2023/01/04 05:04:53;;;;;;;15.10;11.25;;;10.40;99.90;;;;;;1969108;71;22267;-92
2023/01/04 05:07:45;;;;;;;13.30;10.53;;;10.50;99.90;;;;;;1996923;70;21152;-92
2023/01/04 05:10:39;;;;;;;12.47;11.15;;;10.50;99.90;;;;;;1995767;70;21076;-91
2023/01/04 05:16:11;;;;;;;13.48;10.55;;;10.50;99.90;;;;;;1934645;72;22184;-92
2023/01/04 05:24:32;;;;;;;14.07;10.18;;;10.50;99.90;;;;;;1933278;72;22280;-91
2023/01/04 05:27:26;;;;;;;13.10;10.53;;;10.50;99.90;;;;;;1898840;74;21171;-91
2023/01/04 05:33:01;;;;;;;12.47;10.60;;;10.50;99.90;;;;;;1944769;72;22239;-90
2023/01/04 05:35:55;;;;;;;12.53;9.55;;;10.60;99.90;;;;;;1891518;74;21122;-91
2023/01/04 05:38:55;;;;;;;12.37;9.88;;;10.60;99.90;;;;;;1913377;74;21095;-93
2023/01/04 05:44:25;;;;;;;12.53;9.25;;;10.60;99.90;;;;;;1928539;72;22373;-92
2023/01/04 05:47:17;;;;;;;11.00;9.20;;;10.60;99.90;;;;;;1879475;74;21102;-93
2023/01/04 05:50:10;;;;;;;11.30;9.60;;;10.60;99.90;;;;;;1904192;74;21172;-92
2023/01/04 05:53:02;;;;;;;11.30;8.70;;;10.60;99.90;;;;;;1872732;75;21107;-93
2023/01/04 05:55:54;;;;;;;9.68;8.28;;;10.50;99.90;;;;;;1885304;75;21105;-90
2023/01/04 06:01:59;;;;;;;9.10;8.05;;;10.60;99.90;;;;;;2090343;68;22690;-93
2023/01/04 06:04:52;;;;;;;8.70;7.58;;;10.60;99.90;;;;;;2056940;69;21118;-90
2023/01/04 06:10:33;;;;;;;12.33;8.08;;;10.70;99.90;;;;;;1976745;72;22168;-92
2023/01/04 06:17:11;;;;;;;9.80;7.83;;;10.70;99.90;;;;;;2085207;68;22150;-91
2023/01/04 06:20:09;;;;;;;9.20;8.05;;;10.60;99.90;;;;;;2032623;70;21167;-91
2023/01/04 06:23:00;;;;;;;10.40;8.75;;;10.60;99.90;;;;;;2050745;69;21081;-91
2023/01/04 06:28:33;;;;;;;12.03;9.23;;;10.60;99.90;;;;;;1945808;72;22756;-92
2023/01/04 06:31:35;;;;;;;11.75;9.03;;;10.60;99.90;;;;;;1921512;74;21388;-89
2023/01/04 06:34:22;;;;;;;12.68;9.10;;;10.60;99.90;;;;;;1911263;74;21114;-91
2023/01/04 06:39:56;;;;;;;12.70;8.53;;;10.50;99.90;;;;;;1942067;72;22764;-92
2023/01/04 06:45:28;;;;;;;12.18;8.90;;;10.50;99.90;;;;;;1951233;72;22244;-92
2023/01/04 06:48:20;;;;;;;9.30;8.28;;;10.50;99.90;;;;;;1884783;75;21063;-91
2023/01/04 06:51:13;;;;;;;10.35;8.35;;;10.40;99.90;;;;;;1880152;75;21131;-90
2023/01/04 06:54:05;;;;;;;11.73;8.55;;;10.40;99.90;;;;;;1878726;75;21058;-91
2023/01/04 06:56:57;;;;;;;9.80;8.00;;;10.40;99.90;;;;;;1887598;75;21150;-91
2023/01/04 06:59:50;;;;;;;11.93;8.18;;;10.30;99.90;;;;;;1884717;76;21126;-91
2023/01/04 07:05:24;;;;;;;10.70;7.00;;;10.30;99.90;;;;;;1949187;72;22210;-91
2023/01/04 07:08:17;;;;;;;7.95;6.40;;;10.30;99.90;;;;;;1894086;75;21095;-91
2023/01/04 07:11:09;;;;;;;8.68;5.95;;;10.30;99.90;;;;;;1884424;75;21099;-91
2023/01/04 07:14:01;;;;;;;8.53;6.45;;;10.30;99.90;;;;;;1887570;75;21087;-90
2023/01/04 07:19:39;;;;;;;7.55;5.67;;;10.30;99.90;;;;;;1948260;72;22178;-92
2023/01/04 07:45:59;;;;;;;10.68;7.50;;;10.30;99.90;;;;;;2061152;69;22110;-91
2023/01/04 07:48:51;;;;;;;11.43;7.37;;;10.30;99.90;;;;;;1987807;71;21059;-91
2023/01/04 07:55:36;;;;;;;9.40;7.30;;;10.20;99.90;;;;;;1980440;71;22116;-92
2023/01/04 08:01:19;;;;;;;9.78;6.45;;;10.10;99.90;;;;;;1955821;72;22132;-92
2023/01/04 08:04:15;;;;;;;8.30;5.92;;;10.00;99.90;;;;;;1873009;76;21184;-92
2023/01/04 08:07:07;;;;;;;10.80;6.80;;;10.00;99.90;;;;;;1887600;75;21183;-91
2023/01/04 08:09:59;;;;;;;8.15;6.62;;;10.00;99.90;;;;;;1895348;75;21099;-89
2023/01/04 08:15:36;;;;;;;9.23;6.65;;;9.90;99.90;;;;;;1969659;72;22169;-89
2023/01/04 08:18:29;;;;;;;8.30;7.05;;;10.00;99.90;;;;;;1910368;74;21044;-91
2023/01/04 08:21:21;;;;;;;10.30;7.28;;;10.00;99.90;;;;;;1904926;75;21306;-91
2023/01/04 08:26:58;;;;;;;13.72;7.80;;;10.20;99.90;;;;;;1942830;72;22168;-91
2023/01/04 08:29:49;;;;;;;9.08;7.70;;;10.10;99.90;;;;;;1884417;75;21051;-92
2023/01/04 08:32:42;;;;;;;9.33;7.65;;;10.20;99.90;;;;;;1909215;75;21128;-91
2023/01/04 08:35:33;;;;;;;9.30;7.20;;;10.10;99.90;;;;;;1905137;75;21101;-92
2023/01/04 08:38:26;;;;;;;11.90;7.62;;;10.20;99.90;;;;;;1892579;75;21263;-91
2023/01/04 08:41:20;;;;;;;9.35;6.65;;;10.20;99.90;;;;;;1906578;75;21135;-92
2023/01/04 08:44:14;;;;;;;11.15;7.47;;;10.30;99.90;;;;;;1915323;75;21114;-92
2023/01/04 08:47:06;;;;;;;9.50;7.95;;;10.50;99.90;;;;;;1907675;75;21170;-91
2023/01/04 08:52:51;;;;;;;12.30;8.28;;;10.50;99.90;;;;;;1947232;72;22169;-90
2023/01/04 08:55:52;;;;;;;10.95;8.63;;;10.60;99.90;;;;;;1905429;75;21110;-92
2023/01/04 08:58:45;;;;;;;11.28;8.40;;;10.60;99.90;;;;;;1912658;74;21091;-91
2023/01/04 09:01:38;;;;;;;13.50;8.58;;;10.60;99.90;;;;;;1906106;74;21142;-91
2023/01/04 09:05:01;;;;;;;12.30;8.55;;;10.70;99.90;;;;;;1919920;74;21087;-89
2023/01/04 09:07:53;;;;;;;11.10;8.58;;;10.60;99.90;;;;;;1926397;74;21131;-91
2023/01/04 09:16:25;;;;;;;13.72;7.60;;;10.40;99.90;;;;;;1950034;72;22385;-92
2023/01/04 09:19:18;;;;;;;10.15;7.25;;;10.40;99.90;;;;;;1931402;73;21144;-91
2023/01/04 09:22:12;;;;;;;11.30;8.05;;;10.40;99.90;;;;;;1917573;75;21120;-91
2023/01/04 09:25:05;;;;;;;10.85;7.70;;;10.40;99.90;;;;;;1917454;75;21083;-91
2023/01/04 09:28:00;;;;;;;11.05;6.90;;;10.40;99.90;;;;;;1916744;75;21201;-90
2023/01/04 09:30:51;;;;;;;9.88;6.25;;;10.50;99.90;;;;;;1917165;73;21133;-91
2023/01/04 09:33:44;;;;;;;10.93;6.62;;;10.50;99.90;;;;;;1933491;73;21085;-90
2023/01/04 09:36:38;;;;;;;9.08;6.75;;;10.50;99.90;;;;;;1918065;75;21134;-90
2023/01/04 09:39:30;;;;;;;11.70;6.83;;;10.50;99.90;;;;;;1925823;73;21114;-92
2023/01/04 09:42:25;;;;;;;8.98;6.22;;;10.50;99.90;;;;;;1917182;75;21175;-93
2023/01/04 09:45:22;;;;;;;8.40;6.22;;;10.60;99.90;;;;;;1917189;75;21113;-91
2023/01/04 09:51:35;;;;;;;9.23;6.30;;;10.70;99.90;;;;;;1934224;72;22332;-91
2023/01/04 10:12:45;;;;;;;7.20;5.62;;;11.00;99.90;;;;;;2069027;68;22238;-92
2023/01/04 10:15:40;;;;;;;8.93;5.30;;;11.00;99.90;;;;;;2041662;69;21081;-90
2023/01/04 10:24:52;;;;;;;9.48;7.20;;;11.10;99.90;;;;;;1919317;72;28066;-92
2023/01/04 10:30:32;;;;;;;8.75;6.67;;;11.30;99.90;;;;;;1957361;72;22128;-92
2023/01/04 10:33:28;;;;;;;8.20;6.05;;;11.30;99.90;;;;;;1900878;75;21153;-92
2023/01/04 10:36:25;;;;;;;7.53;6.55;;;11.30;99.90;;;;;;1876324;75;21146;-91
2023/01/04 10:39:18;;;;;;;8.80;6.87;;;11.20;99.90;;;;;;1886011;75;21600;-91
2023/01/04 10:45:14;;;;;;;8.25;6.83;;;11.40;99.90;;;;;;1943762;72;22426;-93
2023/01/04 10:48:11;;;;;;;8.17;6.27;;;11.50;99.90;;;;;;1917284;75;21573;-91
2023/01/04 10:51:06;;;;;;;7.33;5.47;;;11.50;99.90;;;;;;1931145;73;21184;-91
2023/01/04 10:54:05;;;;;;;7.75;6.15;;;11.50;99.90;;;;;;1917824;75;21105;-91
2023/01/04 11:11:14;;;;;;;8.73;6.45;;;11.70;99.90;;;;;;1953851;72;27184;-90
2023/01/04 11:14:06;;;;;;;8.80;6.92;;;11.90;99.90;;;;;;1893886;75;21165;-90
2023/01/04 11:17:04;;;;;;;9.15;6.92;;;12.00;99.90;;;;;;1917163;75;21089;-90
2023/01/04 11:19:57;;;;;;;7.80;7.00;;;12.10;99.90;;;;;;1917383;75;21102;-90
2023/01/04 11:22:53;;;;;;;9.75;7.35;;;12.20;99.90;;;;;;1892936;75;21154;-91
2023/01/04 11:25:49;;;;;;;10.78;7.75;;;12.30;99.90;;;;;;1904437;75;21257;-92
2023/01/04 11:28:47;;;;;;;8.98;7.03;;;12.40;99.90;;;;;;1917314;75;21516;-90
2023/01/04 11:34:46;;;;;;;8.33;6.92;;;12.60;99.90;;;;;;1976738;72;22215;-91
2023/01/04 11:37:42;;;;;;;7.40;6.10;;;12.60;99.90;;;;;;1939341;73;21090;-90
2023/01/04 11:40:34;;;;;;;6.95;5.90;;;12.70;99.90;;;;;;1914881;74;21180;-92
2023/01/04 11:43:27;;;;;;;7.15;6.30;;;12.70;99.90;;;;;;1905461;75;21302;-91
2023/01/04 11:46:26;;;;;;;8.63;6.62;;;12.70;99.90;;;;;;1907146;75;21103;-90
2023/01/04 11:49:21;;;;;;;8.78;6.95;;;12.90;99.90;;;;;;1929038;74;21047;-91
2023/01/04 11:52:30;;;;;;;9.35;6.45;;;13.00;99.90;;;;;;1907479;75;21196;-91
2023/01/04 11:55:27;;;;;;;7.95;6.62;;;13.00;99.90;;;;;;1905371;75;21205;-91
2023/01/04 11:58:20;;;;;;;7.78;6.40;;;13.10;99.90;;;;;;1905552;75;21177;-90
2023/01/04 12:01:24;;;;;;;7.50;5.40;;;13.10;99.90;;;;;;1863221;77;21385;-90
2023/01/04 12:04:19;;;;;;;5.45;4.78;;;13.20;99.90;;;;;;1904929;75;21102;-90
2023/01/04 12:07:15;;;;;;;7.15;5.35;;;13.40;99.90;;;;;;1905250;75;21111;-90
2023/01/04 12:10:23;;;;;;;4.40;3.95;;;13.50;99.90;;;;;;1910259;74;21117;-90
2023/01/04 12:13:15;;;;;;;5.15;4.37;;;13.50;99.90;;;;;;1938945;74;21091;-91
2023/01/04 12:16:10;;;;;;;5.40;4.78;;;13.40;99.90;;;;;;1918093;74;21086;-91
2023/01/04 12:19:04;;;;;;;5.20;4.65;;;13.50;99.90;;;;;;1904808;75;21125;-92
2023/01/04 12:22:01;;;;;;;5.30;4.17;;;13.60;99.90;;;;;;1916449;74;21284;-91
2023/01/04 12:24:55;;;;;;;5.92;4.37;;;13.60;99.90;;;;;;1917569;74;21076;-90
2023/01/04 12:27:50;;;;;;;4.75;4.25;;;13.70;99.90;;;;;;1914191;74;21153;-90
2023/01/04 12:30:46;;;;;;;5.28;4.35;;;13.70;99.90;;;;;;1906043;75;21122;-91
2023/01/04 12:33:41;;;;;;;5.53;3.95;;;13.70;99.90;;;;;;1907348;75;21179;-90
2023/01/04 12:41:11;;;;;;;5.05;3.77;;;13.70;99.90;;;;;;2091863;68;22121;-92
2023/01/04 12:44:09;;;;;;;6.22;3.45;;;13.70;99.90;;;;;;2032621;70;21096;-91
2023/01/04 12:50:15;;;;;;;5.08;4.00;;;13.80;99.90;;;;;;2033486;70;21110;-90
2023/01/04 12:53:12;;;;;;;5.33;4.22;;;13.80;99.90;;;;;;2032409;70;21075;-89
2023/01/04 12:56:05;;;;;;;;;;;13.70;99.90;;;;;;2050569;69;21167;-90
2023/01/04 13:06:24;;;;;;;6.22;5.05;;;13.90;99.90;;;;;;1958114;72;22186;-92
2023/01/04 13:09:21;;;;;;;5.72;4.12;;;13.90;99.90;;;;;;1885041;76;21136;-91
2023/01/04 13:12:45;;;;;;;5.92;4.20;;;13.80;99.90;;;;;;1884935;76;21140;-90
2023/01/04 13:15:46;;;;;;;5.30;4.10;;;13.80;99.90;;;;;;1899242;75;21188;-91
2023/01/04 13:18:41;;;;;;;6.72;3.85;;;14.00;99.90;;;;;;1917641;75;21168;-91
2023/01/04 13:21:36;;;;;;;5.28;4.37;;;14.10;99.90;;;;;;1917438;75;21067;-90
2023/01/04 13:24:31;;;;;;;6.47;3.52;;;14.10;99.90;;;;;;1892601;75;21114;-93
2023/01/04 13:27:24;;;;;;;5.55;3.58;;;14.00;99.90;;;;;;1904776;75;21082;-92
2023/01/04 13:30:35;;;;;;;4.12;3.37;;;13.90;99.90;;;;;;1917749;75;21104;-92
2023/01/04 13:33:27;;;;;;;5.58;3.92;;;13.90;99.90;;;;;;1899374;75;21051;-91
2023/01/04 13:36:21;;;;;;;4.15;3.35;;;13.90;99.90;;;;;;1895419;75;21094;-92
2023/01/04 13:39:14;;;;;;;5.72;4.22;;;13.80;99.90;;;;;;1912669;75;21059;-92
2023/01/04 13:42:08;;;;;;;5.62;4.47;;;13.90;99.90;;;;;;1870910;76;21611;-92
2023/01/04 13:48:19;;;;;;;4.75;4.08;;;13.80;99.90;;;;;;1959593;72;22209;-91
2023/01/04 13:51:17;;;;;;;5.25;3.95;;;13.70;99.90;;;;;;1886612;75;21169;-91
2023/01/04 13:54:21;;;;;;;5.72;4.22;;;13.80;99.90;;;;;;1874172;76;21056;-91
2023/01/04 13:57:19;;;;;;;5.58;4.22;;;13.90;99.90;;;;;;1875491;76;21117;-91
2023/01/04 14:00:27;;;;;;;;;;;13.90;99.90;;;;;;1876935;76;21130;-91
2023/01/04 14:03:26;;;;;;;4.97;3.30;;;14.00;99.90;;;;;;1873402;75;20214;-92
2023/01/04 14:06:28;;;;;;;4.37;3.70;;;14.00;99.90;;;;;;1905365;75;21180;-91
2023/01/04 14:09:24;;;;;;;5.22;3.80;;;14.10;99.90;;;;;;1889675;75;21143;-91
2023/01/04 14:12:20;;;;;;;5.75;4.78;;;14.10;99.90;;;;;;1873002;76;21309;-92
2023/01/04 14:15:19;;;;;;;5.33;4.30;;;13.90;99.90;;;;;;1903417;75;21127;-90
2023/01/04 14:18:31;;;;;;;5.97;3.83;;;13.90;99.90;;;;;;1905270;75;21095;-91
2023/01/04 14:21:37;;;;;;;5.08;3.72;;;13.90;99.90;;;;;;1901559;75;21185;-92
2023/01/04 14:24:36;;;;;;;5.42;4.00;;;13.90;99.90;;;;;;1873356;76;21168;-91
2023/01/04 14:27:35;;;;;;;4.80;4.20;;;13.90;99.90;;;;;;1873469;76;21121;-91
2023/01/04 14:30:34;;;;;;;4.97;4.00;;;13.90;99.90;;;;;;1873964;76;21064;-91
2023/01/04 14:33:31;;;;;;;5.40;4.15;;;13.80;99.90;;;;;;1874220;76;21423;-91
2023/01/04 14:36:26;;;;;;;5.45;3.90;;;13.70;99.90;;;;;;1873479;76;21176;-91
2023/01/04 14:39:34;;;;;;;5.25;4.12;;;13.70;99.90;;;;;;1872729;76;21338;-91
2023/01/04 14:42:31;;;;;;;4.62;3.98;;;13.60;99.90;;;;;;1873068;76;21623;-93
2023/01/04 14:45:25;;;;;;;4.67;4.05;;;13.60;99.90;;;;;;1895467;75;21137;-91
2023/01/04 14:48:19;;;;;;;4.47;3.67;;;13.60;99.90;;;;;;1904474;74;21208;-91
2023/01/04 14:51:21;;;;;;;6.12;4.30;;;13.70;99.90;;;;;;1904148;75;21156;-90
2023/01/04 14:54:15;;;;;;;5.30;4.03;;;13.70;99.90;;;;;;1873325;75;21125;-89
2023/01/04 14:57:13;;;;;;;5.92;4.67;;;13.60;99.90;;;;;;1878343;75;21052;-91
2023/01/04 15:00:08;;;;;;;4.62;3.92;;;13.50;99.90;;;;;;1902810;75;21160;-91
2023/01/04 15:03:09;;;;;;;4.37;3.67;;;13.50;99.90;;;;;;1872962;76;21115;-91
2023/01/04 15:06:05;;;;;;;4.53;3.65;;;13.40;99.90;;;;;;1874513;76;21104;-91
2023/01/04 15:09:02;;;;;;;5.33;3.95;;;13.30;99.90;;;;;;1887853;75;21131;-90
2023/01/04 15:12:08;;;;;;;6.83;4.20;;;13.30;99.90;;;;;;1907979;75;21193;-91
2023/01/04 15:15:03;;;;;;;5.40;3.72;;;13.30;99.90;;;;;;1910405;75;21099;-90
2023/01/04 15:17:55;;;;;;;5.90;3.80;;;13.30;99.90;;;;;;1883366;75;21098;-90
2023/01/04 15:20:46;;;;;;;4.37;3.50;;;13.30;99.90;;;;;;1907934;75;21157;-91
2023/01/04 15:23:39;;;;;;;4.92;3.27;;;13.20;99.90;;;;;;1886830;75;21161;-91
2023/01/04 15:26:31;;;;;;;5.28;3.80;;;13.10;99.90;;;;;;1903962;75;21136;-90
2023/01/04 15:29:25;;;;;;;5.95;3.90;;;13.10;99.90;;;;;;1883588;75;21067;-91
2023/01/04 15:32:22;;;;;;;5.50;3.25;;;13.00;99.90;;;;;;1869921;76;21106;-91
2023/01/04 15:35:18;;;;;;;5.12;3.60;;;12.90;99.90;;;;;;1873950;76;21094;-92
2023/01/04 15:38:10;;;;;;;4.15;3.40;;;12.90;99.90;;;;;;1873576;76;21187;-90
2023/01/04 15:41:05;;;;;;;5.33;3.83;;;12.80;99.90;;;;;;1836560;76;21070;-92
2023/01/04 15:44:03;;;;;;;8.73;4.15;;;12.80;99.90;;;;;;1829204;78;21143;-92
2023/01/04 15:47:04;;;;;;;4.62;3.83;;;12.70;99.90;;;;;;1829598;78;21130;-90
2023/01/04 15:50:03;;;;;;;5.20;3.67;;;12.70;99.90;;;;;;1891915;75;21111;-90
2023/01/04 15:53:04;;;;;;;5.10;3.95;;;12.60;99.90;;;;;;1893155;75;21135;-90
2023/01/04 15:55:58;;;;;;;7.62;4.12;;;12.50;99.90;;;;;;1841867;78;21176;-91
2023/01/04 15:58:54;;;;;;;5.20;4.10;;;12.40;99.90;;;;;;1896040;75;21119;-90
2023/01/04 16:01:49;;;;;;;5.72;4.12;;;12.30;99.90;;;;;;1842324;77;21097;-91
2023/01/04 16:04:43;;;;;;;5.78;4.30;;;12.20;99.90;;;;;;1887575;75;21149;-91
2023/01/04 16:07:38;;;;;;;7.42;4.42;;;12.10;99.90;;;;;;1872889;76;21189;-91
2023/01/04 16:10:31;;;;;;;5.00;4.33;;;12.00;99.90;;;;;;1882754;75;21657;-91
2023/01/04 16:13:42;;;;;;;6.45;4.78;;;12.00;99.90;;;;;;1880979;75;21112;-91
2023/01/04 16:16:34;;;;;;;5.33;4.70;;;11.90;99.90;;;;;;1872383;76;21111;-91
2023/01/04 16:19:31;;;;;;;8.15;4.65;;;11.90;99.90;;;;;;1872801;76;21064;-91
2023/01/04 16:22:23;;;;;;;6.78;4.40;;;11.80;99.90;;;;;;1889929;75;21168;-90
2023/01/04 16:25:15;;;;;;;5.28;4.78;;;11.80;99.90;;;;;;1905022;75;21098;-90
2023/01/04 16:28:08;;;;;;;7.05;4.85;;;11.80;99.90;;;;;;1875333;75;21140;-90
2023/01/04 16:31:02;;;;;;;6.33;4.97;;;11.80;99.90;;;;;;1898786;75;21209;-90
2023/01/04 16:37:01;;;;;;;5.90;5.12;;;11.70;99.90;;;;;;1959645;72;20126;-90
2023/01/04 16:39:56;;;;;;;6.45;5.47;;;11.70;99.90;;;;;;1918153;75;21055;-93
2023/01/04 16:42:50;;;;;;;5.78;5.08;;;11.70;99.90;;;;;;1917807;75;21133;-92
2023/01/04 16:45:44;;;;;;;6.75;4.90;;;11.60;99.90;;;;;;1891397;75;21084;-91
2023/01/04 16:48:36;;;;;;;8.40;5.28;;;11.70;99.90;;;;;;1907111;75;21111;-90
2023/01/04 16:51:31;;;;;;;5.80;4.92;;;11.70;99.90;;;;;;1917938;75;21044;-89
2023/01/04 16:54:42;;;;;;;6.03;5.35;;;11.70;99.90;;;;;;1905231;75;21157;-90
2023/01/04 16:57:34;;;;;;;7.83;5.47;;;11.70;99.90;;;;;;1860132;76;21172;-90
2023/01/04 17:00:26;;;;;;;6.17;5.17;;;11.70;99.90;;;;;;1889436;75;21198;-90
2023/01/04 17:03:24;;;;;;;6.75;5.15;;;11.70;99.90;;;;;;1884705;76;21061;-90
2023/01/04 17:06:21;;;;;;;6.45;4.90;;;11.70;99.90;;;;;;1884989;76;21070;-90
2023/01/04 17:09:16;;;;;;;5.25;4.45;;;11.70;99.90;;;;;;1885315;76;21143;-90
2023/01/04 17:12:10;;;;;;;6.83;5.10;;;11.60;99.90;;;;;;1897040;75;21127;-90
2023/01/04 17:15:08;;;;;;;9.58;5.35;;;11.50;99.90;;;;;;1889105;75;21142;-90
2023/01/04 17:18:06;;;;;;;7.30;5.50;;;11.40;99.90;;;;;;1886122;76;21075;-90
2023/01/04 17:21:02;;;;;;;8.03;5.17;;;11.40;99.90;;;;;;1885920;76;21052;-91
2023/01/04 17:23:59;;;;;;;6.92;5.30;;;11.40;99.90;;;;;;1885100;76;21124;-90
2023/01/04 17:26:53;;;;;;;6.83;5.15;;;11.40;99.90;;;;;;1885555;76;21133;-90
2023/01/04 17:29:47;;;;;;;5.85;4.50;;;11.40;99.90;;;;;;1915248;75;21197;-90
2023/01/04 17:32:39;;;;;;;8.15;5.20;;;11.40;99.90;;;;;;1917522;75;21649;-90
2023/01/04 17:35:31;;;;;;;6.35;4.92;;;11.40;99.90;;;;;;1917705;74;21056;-90
2023/01/04 17:38:25;;;;;;;8.28;5.10;;;11.40;99.90;;;;;;1840981;77;21109;-91
2023/01/04 17:41:19;;;;;;;6.20;4.97;;;11.40;99.90;;;;;;1912128;74;21078;-90
2023/01/04 17:44:19;;;;;;;8.45;5.72;;;11.40;99.90;;;;;;1849944;77;21132;-91
2023/01/04 17:47:19;;;;;;;7.22;5.08;;;11.40;99.90;;;;;;1822333;77;21353;-90
2023/01/04 17:50:23;;;;;;;8.08;5.78;;;11.40;99.90;;;;;;1865126;77;21118;-90
2023/01/04 17:53:24;;;;;;;7.33;5.03;;;11.30;99.90;;;;;;1913361;74;21094;-90
2023/01/04 17:56:25;;;;;;;7.33;5.78;;;11.30;99.90;;;;;;1910631;74;21070;-92
2023/01/04 17:59:17;;;;;;;8.75;5.95;;;11.30;99.90;;;;;;1906231;74;21036;-92
2023/01/04 18:02:23;;;;;;;5.60;4.85;;;11.20;99.90;;;;;;1917861;74;21584;-90
2023/01/04 18:05:38;;;;;;;7.78;5.17;;;11.30;99.90;;;;;;1884211;76;21230;-91
2023/01/04 18:08:33;;;;;;;7.15;5.58;;;11.20;99.90;;;;;;1904136;74;21187;-91
2023/01/04 18:15:05;;;;;;;10.50;7.30;;;11.10;99.90;;;;;;2003382;69;27891;-91
2023/01/04 18:18:09;;;;;;;9.38;7.15;;;11.30;99.90;;;;;;1990317;71;21328;-90
2023/01/04 18:21:15;;;;;;;9.15;5.85;;;11.30;99.90;;;;;;1981857;72;21107;-91
2023/01/04 18:24:11;;;;;;;8.25;6.30;;;11.20;99.90;;;;;;1969680;72;21108;-91
2023/01/04 18:27:06;;;;;;;6.90;5.92;;;11.20;99.90;;;;;;1964988;72;21213;-90
2023/01/04 18:30:12;;;;;;;7.40;5.97;;;11.20;99.90;;;;;;1948296;73;21145;-92
2023/01/04 18:33:09;;;;;;;11.18;6.95;;;11.10;99.90;;;;;;1947669;73;21155;-90
2023/01/04 18:36:23;;;;;;;9.25;6.33;;;11.00;99.90;;;;;;1977051;72;21071;-90
2023/01/04 18:39:18;;;;;;;10.95;7.22;;;11.00;99.90;;;;;;1978238;72;21096;-90
2023/01/04 18:42:13;;;;;;;9.20;7.00;;;11.00;99.90;;;;;;1948335;73;21093;-90
2023/01/04 18:45:15;;;;;;;8.10;6.42;;;11.00;99.90;;;;;;1968812;72;21094;-90
2023/01/04 18:48:17;;;;;;;8.65;6.85;;;11.00;99.90;;;;;;1983793;72;21140;-90
2023/01/04 18:51:32;;;;;;;9.65;6.67;;;11.00;99.90;;;;;;1961641;72;21160;-90
2023/01/04 18:54:34;;;;;;;7.92;6.67;;;11.00;99.90;;;;;;1982806;72;21078;-89
2023/01/04 18:57:27;;;;;;;8.50;6.75;;;10.90;99.90;;;;;;1949027;72;21082;-90
2023/01/04 19:00:32;;;;;;;10.28;7.30;;;10.80;99.90;;;;;;1952699;72;21070;-90
2023/01/04 19:03:48;;;;;;;9.03;7.10;;;10.70;99.90;;;;;;1950979;72;21591;-90
2023/01/04 19:11:10;;;;;;;9.48;7.62;;;10.60;99.90;;;;;;1876418;73;21108;-89
2023/01/04 19:14:02;;;;;;;9.53;6.78;;;10.60;99.90;;;;;;1963880;72;21168;-90
2023/01/04 19:17:04;;;;;;;8.13;6.40;;;10.70;99.90;;;;;;1961156;72;21082;-90
2023/01/04 19:20:23;;;;;;;9.80;7.12;;;10.60;99.90;;;;;;1984968;72;21062;-90
2023/01/04 19:23:30;;;;;;;9.55;6.78;;;10.60;99.90;;;;;;1973996;72;21031;-90
2023/01/04 19:26:27;;;;;;;8.90;6.83;;;10.60;99.90;;;;;;1978590;72;21067;-90
2023/01/04 19:33:03;;;;;;;8.65;6.85;;;10.60;99.90;;;;;;1953498;72;21090;-90
2023/01/04 19:36:36;;;;;;;8.68;6.45;;;10.50;99.90;;;;;;1970624;72;21086;-89
2023/01/04 19:39:27;;;;;;;8.05;6.40;;;10.50;99.90;;;;;;1844833;73;21187;-91
2023/01/04 19:42:20;;;;;;;8.88;5.95;;;10.40;99.90;;;;;;1951241;72;21484;-91
2023/01/04 19:45:13;;;;;;;10.23;6.50;;;10.40;99.90;;;;;;1960633;72;21082;-89
2023/01/04 19:48:07;;;;;;;8.90;6.12;;;10.40;99.90;;;;;;1964089;72;21098;-90
2023/01/04 19:51:08;;;;;;;11.40;5.92;;;10.40;99.90;;;;;;1947991;74;21152;-90
2023/01/04 19:54:00;;;;;;;9.60;6.60;;;10.40;99.90;;;;;;1947833;74;21212;-90
2023/01/04 19:59:40;;;;;;;10.78;7.05;;;10.40;99.90;;;;;;1975923;72;22194;-91
2023/01/04 20:02:32;;;;;;;10.15;7.15;;;10.40;99.90;;;;;;1906263;75;21185;-91
2023/01/04 20:05:24;;;;;;;10.48;7.35;;;10.30;99.90;;;;;;1904979;75;21095;-90
2023/01/04 20:08:16;;;;;;;9.83;6.95;;;10.30;99.90;;;;;;1904582;75;21111;-90
2023/01/04 20:11:09;;;;;;;10.15;7.10;;;10.30;99.90;;;;;;1904736;75;21134;-90
2023/01/04 20:14:01;;;;;;;8.50;6.70;;;10.30;99.90;;;;;;1904746;75;21534;-89
2023/01/04 20:16:53;;;;;;;8.25;6.03;;;10.20;99.90;;;;;;1915531;74;21109;-89